Time;durP1;ratioP1;P1;durP2;ratioP2;P2;SDS_P1;SDS_P2;PMS_P1;PMS_P2;Temp;Humidity;BMP_temperature;BMP_pressure;BME280_temperature;BME280_humidity;BME280_pressure;Samples;Min_cycle;Max_cycle;Signal;HPM_P1;HPM_P2
2023/04/19 00:01:07;;;;;;;6.03;4.10;;;;;;;-143.29;100.00;62188.47;4899303;29;20041;-87
2023/04/19 00:03:32;;;;;;;6.95;3.53;;;;;;;-143.29;100.00;62188.47;4899313;29;20028;-88
2023/04/19 00:06:01;;;;;;;4.90;3.13;;;;;;;-143.29;100.00;62188.47;4899589;29;20495;-88
2023/04/19 00:08:26;;;;;;;5.03;3.17;;;;;;;-143.29;100.00;62188.47;4899647;29;20032;-88
2023/04/19 00:10:52;;;;;;;4.72;3.50;;;;;;;-143.29;100.00;62188.47;4900136;29;20031;-88
2023/04/19 00:13:17;;;;;;;4.45;3.33;;;;;;;-143.29;100.00;62188.47;4900177;29;20369;-87
2023/04/19 00:15:42;;;;;;;3.83;3.05;;;;;;;-143.29;100.00;62188.47;4900171;29;20049;-87
2023/04/19 00:18:08;;;;;;;4.88;3.05;;;;;;;-143.29;100.00;62188.47;4899822;29;20111;-87
2023/04/19 00:20:33;;;;;;;6.32;4.07;;;;;;;-143.29;100.00;62188.47;4900090;29;20364;-87
2023/04/19 00:22:59;;;;;;;6.88;4.15;;;;;;;-143.29;100.00;62188.47;4900012;29;20040;-87
2023/04/19 00:25:24;;;;;;;6.30;3.03;;;;;;;-143.29;100.00;62188.47;4900018;29;20092;-87
2023/04/19 00:27:50;;;;;;;6.25;3.05;;;;;;;-143.29;100.00;62188.47;4899805;29;20033;-87
2023/04/19 00:30:15;;;;;;;4.93;3.55;;;;;;;-143.29;100.00;62188.47;4899851;29;20028;-87
2023/04/19 00:32:41;;;;;;;5.95;3.60;;;;;;;-143.29;100.00;62188.47;4898855;29;20059;-87
2023/04/19 00:35:06;;;;;;;3.70;3.05;;;;;;;-143.29;100.00;62188.47;4898459;29;20471;-86
2023/04/19 00:37:32;;;;;;;5.88;4.70;;;;;;;-143.29;100.00;62188.47;4899809;29;20514;-87
2023/04/19 00:39:57;;;;;;;6.22;3.55;;;;;;;-143.29;100.00;62188.47;4899727;29;20116;-88
2023/04/19 00:42:22;;;;;;;6.53;3.40;;;;;;;-143.29;100.00;62188.47;4899630;29;20053;-87
2023/04/19 00:44:47;;;;;;;5.80;3.30;;;;;;;-143.29;100.00;62188.47;4899683;29;20033;-88
2023/04/19 00:47:13;;;;;;;5.22;3.78;;;;;;;-143.29;100.00;62188.47;4899441;29;20020;-88
2023/04/19 00:49:39;;;;;;;7.75;3.78;;;;;;;-143.29;100.00;62188.47;4898306;29;20047;-87
2023/04/19 00:52:05;;;;;;;5.05;3.33;;;;;;;-143.29;100.00;62188.47;4899570;29;20039;-88
2023/04/19 00:54:32;;;;;;;5.45;3.50;;;;;;;-143.29;100.00;62188.47;4899553;29;20100;-88
2023/04/19 00:56:57;;;;;;;6.43;3.72;;;;;;;-143.29;100.00;62188.47;4899267;29;20116;-88
2023/04/19 00:59:23;;;;;;;5.05;3.50;;;;;;;-143.29;100.00;62188.47;4899353;29;20547;-87
2023/04/19 01:01:49;;;;;;;5.38;3.53;;;;;;;-143.29;100.00;62188.47;4898296;29;20100;-87
2023/04/19 01:04:15;;;;;;;6.28;3.70;;;;;;;-143.29;100.00;62188.47;4899144;29;20112;-88
2023/04/19 01:06:41;;;;;;;6.57;3.65;;;;;;;-143.29;100.00;62188.47;4899251;29;20075;-88
2023/04/19 01:09:06;;;;;;;4.20;3.05;;;;;;;-143.29;100.00;62188.47;4899055;29;20416;-87
2023/04/19 01:11:32;;;;;;;5.57;3.65;;;;;;;-143.29;100.00;62188.47;4898949;29;20032;-87
2023/04/19 01:13:58;;;;;;;7.80;3.58;;;;;;;-143.29;100.00;62188.47;4898943;29;20072;-87
2023/04/19 01:16:25;;;;;;;5.82;4.15;;;;;;;-143.29;100.00;62188.47;4898820;29;20546;-87
2023/04/19 01:18:51;;;;;;;6.70;3.80;;;;;;;-143.29;100.00;62188.47;4898912;29;20060;-88
2023/04/19 01:21:17;;;;;;;8.80;4.28;;;;;;;-143.29;100.00;62188.47;4898794;29;20408;-88
2023/04/19 01:23:42;;;;;;;7.68;4.35;;;;;;;-143.29;100.00;62188.47;4899153;29;20032;-87
2023/04/19 01:26:08;;;;;;;5.82;3.80;;;;;;;-143.29;100.00;62188.47;4898993;29;20072;-87
2023/04/19 01:28:33;;;;;;;5.70;3.78;;;;;;;-143.29;100.00;62188.47;4905713;29;20361;-87
2023/04/19 01:30:59;;;;;;;6.80;4.32;;;;;;;-143.29;100.00;62188.47;4897195;29;20411;-87
2023/04/19 01:33:24;;;;;;;9.73;4.50;;;;;;;-143.29;100.00;62188.47;4898483;29;20172;-87
2023/04/19 01:35:49;;;;;;;7.30;4.07;;;;;;;-143.29;100.00;62188.47;4898850;29;20036;-87
2023/04/19 01:38:16;;;;;;;9.88;4.03;;;;;;;-143.29;100.00;62188.47;4898593;29;20028;-87
2023/04/19 01:40:41;;;;;;;9.65;4.10;;;;;;;-143.29;100.00;62188.47;4898584;29;20035;-88
2023/04/19 01:43:07;;;;;;;8.98;5.05;;;;;;;-143.29;100.00;62188.47;4898541;29;20107;-87
2023/04/19 01:45:34;;;;;;;7.97;3.88;;;;;;;-143.29;100.00;62188.47;4898592;29;20031;-88
2023/04/19 01:48:01;;;;;;;6.75;3.97;;;;;;;-143.29;100.00;62188.47;4898280;29;20032;-88
2023/04/19 01:50:27;;;;;;;6.05;3.75;;;;;;;-143.29;100.00;62188.47;4897225;29;20500;-87
2023/04/19 01:52:52;;;;;;;7.65;3.35;;;;;;;-143.29;100.00;62188.47;4898439;29;20028;-87
2023/04/19 01:55:17;;;;;;;6.47;3.97;;;;;;;-143.29;100.00;62188.47;4898237;29;20082;-87
2023/04/19 01:57:43;;;;;;;7.97;4.18;;;;;;;-143.29;100.00;62188.47;4898155;29;20032;-87
2023/04/19 02:00:10;;;;;;;5.32;3.85;;;;;;;-143.29;100.00;62188.47;4897285;29;20100;-86
2023/04/19 02:02:36;;;;;;;7.10;4.43;;;;;;;-143.29;100.00;62188.47;4896802;29;20029;-87
2023/04/19 02:05:02;;;;;;;10.43;4.55;;;;;;;-143.29;100.00;62188.47;4898163;29;20032;-86
2023/04/19 02:07:28;;;;;;;7.22;4.35;;;;;;;-143.29;100.00;62188.47;4898004;29;20041;-86
2023/04/19 02:09:53;;;;;;;7.90;4.22;;;;;;;-143.29;100.00;62188.47;4898015;29;20459;-87
2023/04/19 02:12:19;;;;;;;6.25;3.47;;;;;;;-143.29;100.00;62188.47;4897933;29;20132;-86
2023/04/19 02:14:44;;;;;;;7.63;4.30;;;;;;;-143.29;100.00;62188.47;4897712;29;20472;-87
2023/04/19 02:17:11;;;;;;;8.07;4.65;;;;;;;-143.29;100.00;62188.47;4897752;29;20063;-86
2023/04/19 02:19:36;;;;;;;8.50;4.13;;;;;;;-143.29;100.00;62188.47;4897865;29;20025;-87
2023/04/19 02:22:01;;;;;;;5.53;4.47;;;;;;;-143.29;100.00;62188.47;4897379;29;20028;-86
2023/04/19 02:24:27;;;;;;;9.70;4.75;;;;;;;-143.29;100.00;62188.47;4897523;29;20583;-87
2023/04/19 02:26:52;;;;;;;8.60;4.13;;;;;;;-143.29;100.00;62188.47;4897778;29;20427;-88
2023/04/19 02:29:18;;;;;;;8.18;4.50;;;;;;;-143.29;100.00;62188.47;4897782;29;20045;-88
2023/04/19 02:31:45;;;;;;;9.52;5.00;;;;;;;-143.29;100.00;62188.47;4896798;29;20128;-88
2023/04/19 02:34:11;;;;;;;7.13;4.53;;;;;;;-143.29;100.00;62188.47;4897373;29;20028;-88
2023/04/19 02:36:36;;;;;;;8.38;4.28;;;;;;;-143.29;100.00;62188.47;4897638;29;20111;-88
2023/04/19 02:39:01;;;;;;;8.85;4.72;;;;;;;-143.29;100.00;62188.47;4897515;29;20028;-88
2023/04/19 02:41:27;;;;;;;7.97;4.60;;;;;;;-143.29;100.00;62188.47;4896125;29;20100;-87
2023/04/19 02:43:52;;;;;;;10.95;5.25;;;;;;;-143.29;100.00;62188.47;4897416;29;20029;-85
2023/04/19 02:46:17;;;;;;;12.45;5.22;;;;;;;-143.29;100.00;62188.47;4896334;29;20029;-85
2023/04/19 02:48:43;;;;;;;13.35;6.57;;;;;;;-143.29;100.00;62188.47;4897287;29;20036;-85
2023/04/19 02:51:15;;;;;;;10.80;4.65;;;;;;;-143.29;100.00;62188.47;4897320;29;20119;-86
2023/04/19 02:53:40;;;;;;;;;;;;;;;-143.29;100.00;62188.47;4897787;29;20091;-85
2023/04/19 02:56:06;;;;;;;9.20;5.23;;;;;;;-143.29;100.00;62188.47;4897418;29;20374;-85
2023/04/19 02:58:31;;;;;;;12.63;5.43;;;;;;;-143.29;100.00;62188.47;4897086;29;20793;-85
2023/04/19 03:00:56;;;;;;;11.63;5.38;;;;;;;-143.29;100.00;62188.47;4896229;29;20131;-85
2023/04/19 03:03:22;;;;;;;9.57;5.03;;;;;;;-143.29;100.00;62188.47;4897050;29;20108;-85
2023/04/19 03:05:47;;;;;;;9.68;5.38;;;;;;;-143.29;100.00;62188.47;4897115;29;20171;-85
2023/04/19 03:08:12;;;;;;;9.02;5.20;;;;;;;-143.29;100.00;62188.47;4897017;29;20036;-85
2023/04/19 03:10:38;;;;;;;10.05;5.53;;;;;;;-143.29;100.00;62188.47;4895896;29;20124;-85
2023/04/19 03:13:03;;;;;;;11.60;6.63;;;;;;;-143.29;100.00;62188.47;4896984;29;20077;-85
2023/04/19 03:15:28;;;;;;;8.85;5.15;;;;;;;-143.29;100.00;62188.47;4895817;29;20029;-86
2023/04/19 03:17:54;;;;;;;8.50;5.35;;;;;;;-143.29;100.00;62188.47;4896764;29;20484;-86
2023/04/19 03:20:19;;;;;;;8.35;5.25;;;;;;;-143.29;100.00;62188.47;4895780;29;20440;-85
2023/04/19 03:22:45;;;;;;;10.85;5.47;;;;;;;-143.29;100.00;62188.47;4896698;29;20039;-85
2023/04/19 03:25:12;;;;;;;8.25;5.53;;;;;;;-143.29;100.00;62188.47;4896876;29;20120;-86
2023/04/19 03:27:37;;;;;;;13.32;5.65;;;;;;;-143.29;100.00;62188.47;4896789;29;20028;-86
2023/04/19 03:30:03;;;;;;;14.73;6.43;;;;;;;-143.29;100.00;62188.47;4895817;29;20069;-86
2023/04/19 03:32:29;;;;;;;10.43;6.22;;;;;;;-143.29;100.00;62188.47;4896583;29;20028;-86
2023/04/19 03:34:55;;;;;;;10.35;5.38;;;;;;;-143.29;100.00;62188.47;4896615;29;20037;-86
2023/04/19 03:37:20;;;;;;;10.07;5.40;;;;;;;-143.29;100.00;62188.47;4896674;29;20037;-87
2023/04/19 03:39:46;;;;;;;15.15;6.53;;;;;;;-143.29;100.00;62188.47;4895382;29;20033;-86
2023/04/19 03:42:11;;;;;;;11.30;6.63;;;;;;;-143.29;100.00;62188.47;4897150;29;20098;-86
2023/04/19 03:44:36;;;;;;;11.27;6.32;;;;;;;-143.29;100.00;62188.47;4896650;29;20025;-86
2023/04/19 03:47:02;;;;;;;11.80;6.78;;;;;;;-143.29;100.00;62188.47;4896680;29;20104;-86
2023/04/19 03:49:27;;;;;;;7.63;5.85;;;;;;;-143.29;100.00;62188.47;4895422;29;20055;-86
2023/04/19 03:51:52;;;;;;;14.48;6.82;;;;;;;-143.29;100.00;62188.47;4895482;29;20021;-86
2023/04/19 03:54:18;;;;;;;12.45;6.40;;;;;;;-143.29;100.00;62188.47;4896538;29;20471;-87
2023/04/19 03:56:43;;;;;;;11.68;6.22;;;;;;;-143.29;100.00;62188.47;4896410;29;20055;-86
2023/04/19 03:59:09;;;;;;;13.95;6.95;;;;;;;-143.29;100.00;62188.47;4896659;29;20475;-86
2023/04/19 04:01:34;;;;;;;15.00;6.82;;;;;;;-143.29;100.00;62188.47;4895413;29;20028;-86
2023/04/19 04:04:00;;;;;;;14.20;6.55;;;;;;;-143.29;100.00;62188.47;4896516;29;20040;-86
2023/04/19 04:06:25;;;;;;;12.10;7.07;;;;;;;-143.29;100.00;62188.47;4896611;29;20028;-86
2023/04/19 04:08:51;;;;;;;8.57;5.55;;;;;;;-143.29;100.00;62188.47;4896405;29;20029;-86
2023/04/19 04:11:16;;;;;;;13.93;5.90;;;;;;;-143.29;100.00;62188.47;4896403;29;20033;-86
2023/04/19 04:13:42;;;;;;;12.55;6.22;;;;;;;-143.29;100.00;62188.47;4896480;29;20044;-86
2023/04/19 04:16:07;;;;;;;11.20;5.90;;;;;;;-143.29;100.00;62188.47;4896692;29;20592;-86
2023/04/19 04:18:32;;;;;;;9.48;5.65;;;;;;;-143.29;100.00;62188.47;4896245;29;20040;-86
2023/04/19 04:20:58;;;;;;;11.20;6.43;;;;;;;-143.29;100.00;62188.47;4896296;29;20043;-86
2023/04/19 04:23:24;;;;;;;11.85;5.85;;;;;;;-143.29;100.00;62188.47;4896439;29;20391;-86
2023/04/19 04:26:00;;;;;;;8.50;5.50;;;;;;;-143.29;100.00;62188.47;4896224;29;20081;-86
2023/04/19 04:28:26;;;;;;;10.23;5.65;;;;;;;-143.29;100.00;62188.47;4896236;29;20495;-86
2023/04/19 04:30:52;;;;;;;10.27;5.78;;;;;;;-143.29;100.00;62188.47;4894325;29;20041;-86
2023/04/19 04:33:17;;;;;;;9.05;4.70;;;;;;;-143.29;100.00;62188.47;4895393;29;20033;-86
2023/04/19 04:35:43;;;;;;;8.57;5.22;;;;;;;-143.29;100.00;62188.47;4896388;29;20123;-86
2023/04/19 04:38:08;;;;;;;10.80;6.43;;;;;;;-143.29;100.00;62188.47;4896078;29;20035;-86
2023/04/19 04:40:34;;;;;;;8.10;5.75;;;;;;;-143.29;100.00;62188.47;4896251;29;20028;-86
2023/04/19 04:42:59;;;;;;;8.48;5.90;;;;;;;-143.29;100.00;62188.47;4896334;29;20035;-86
2023/04/19 04:45:25;;;;;;;8.75;5.97;;;;;;;-143.29;100.00;62188.47;4895219;29;20084;-86
2023/04/19 04:47:50;;;;;;;11.30;6.13;;;;;;;-143.29;100.00;62188.47;4898307;29;20165;-86
2023/04/19 04:50:16;;;;;;;12.07;5.93;;;;;;;-143.29;100.00;62188.47;4899626;29;20020;-86
2023/04/19 04:52:41;;;;;;;10.63;6.15;;;;;;;-143.29;100.00;62188.47;4899682;29;20427;-86
2023/04/19 04:55:07;;;;;;;12.75;6.80;;;;;;;-143.29;100.00;62188.47;4899459;29;20031;-86
2023/04/19 04:57:33;;;;;;;12.32;6.03;;;;;;;-143.29;100.00;62188.47;4899031;29;20103;-86
2023/04/19 04:59:58;;;;;;;16.15;6.75;;;;;;;-143.29;100.00;62188.47;4898803;29;20195;-86
2023/04/19 05:02:24;;;;;;;10.00;5.93;;;;;;;-143.29;100.00;62188.47;4899258;29;20424;-86
2023/04/19 05:04:49;;;;;;;13.18;6.63;;;;;;;-143.29;100.00;62188.47;4899340;29;20056;-86
2023/04/19 05:07:15;;;;;;;9.40;6.20;;;;;;;-143.29;100.00;62188.47;4899103;29;20025;-85
2023/04/19 05:09:40;;;;;;;10.82;6.55;;;;;;;-143.29;100.00;62188.47;4899073;29;20412;-85
2023/04/19 05:12:05;;;;;;;10.52;6.10;;;;;;;-143.29;100.00;62188.47;4899244;29;20021;-85
2023/04/19 05:14:31;;;;;;;22.23;6.95;;;;;;;-143.29;100.00;62188.47;4899198;29;20065;-85
2023/04/19 05:16:56;;;;;;;11.48;5.50;;;;;;;-143.29;100.00;62188.47;4899129;29;20052;-86
2023/04/19 05:19:21;;;;;;;10.15;6.07;;;;;;;-143.29;100.00;62188.47;4899290;29;20052;-86
2023/04/19 05:21:47;;;;;;;10.43;6.00;;;;;;;-143.29;100.00;62188.47;4899084;29;20061;-86
2023/04/19 05:24:12;;;;;;;11.38;7.18;;;;;;;-143.29;100.00;62188.47;4898853;29;20036;-86
2023/04/19 05:26:38;;;;;;;11.30;6.50;;;;;;;-143.29;100.00;62188.47;4898778;29;20535;-86
2023/04/19 05:29:03;;;;;;;14.43;7.53;;;;;;;-143.29;100.00;62188.47;4897764;29;20024;-86
2023/04/19 05:31:28;;;;;;;12.40;6.03;;;;;;;-143.29;100.00;62188.47;4896541;29;20031;-86
2023/04/19 05:33:54;;;;;;;12.30;6.38;;;;;;;-143.29;100.00;62188.47;4898795;29;20107;-86
2023/04/19 05:36:19;;;;;;;13.50;6.50;;;;;;;-143.29;100.00;62188.47;4898766;29;20112;-86
2023/04/19 05:38:44;;;;;;;12.73;6.90;;;;;;;-143.29;100.00;62188.47;4898545;29;20052;-86
2023/04/19 05:41:10;;;;;;;14.55;6.85;;;;;;;-143.29;100.00;62188.47;4898661;29;20037;-86
2023/04/19 05:43:35;;;;;;;9.68;6.50;;;;;;;-143.29;100.00;62188.47;4898481;29;20491;-86
2023/04/19 05:46:01;;;;;;;12.73;6.65;;;;;;;-143.29;100.00;62188.47;4898564;29;20031;-86
2023/04/19 05:48:26;;;;;;;13.07;6.85;;;;;;;-143.29;100.00;62188.47;4897121;29;20047;-86
2023/04/19 05:50:53;;;;;;;10.98;7.28;;;;;;;-143.29;100.00;62188.47;4898504;29;20024;-86
2023/04/19 05:53:19;;;;;;;12.50;7.22;;;;;;;-143.29;100.00;62188.47;4898477;29;20480;-85
2023/04/19 05:55:46;;;;;;;11.68;7.13;;;;;;;-143.29;100.00;62188.47;4898184;29;20036;-88
2023/04/19 05:58:12;;;;;;;11.75;7.45;;;;;;;-143.29;100.00;62188.47;4894429;29;20084;-84
2023/04/19 06:00:37;;;;;;;12.45;6.72;;;;;;;-143.29;100.00;62188.47;4901792;29;20044;-85
2023/04/19 06:03:03;;;;;;;12.73;6.13;;;;;;;-143.29;100.00;62188.47;4898047;29;20028;-85
2023/04/19 06:05:28;;;;;;;12.93;7.38;;;;;;;-143.29;100.00;62188.47;4897761;29;20032;-84
2023/04/19 06:07:55;;;;;;;16.80;7.32;;;;;;;-143.29;100.00;62188.47;4897774;29;20051;-85
2023/04/19 06:10:21;;;;;;;12.30;7.72;;;;;;;-143.29;100.00;62188.47;4897935;29;20025;-82
2023/04/19 06:12:47;;;;;;;15.48;6.85;;;;;;;-143.29;100.00;62188.47;4898054;29;20025;-84
2023/04/19 06:15:12;;;;;;;16.15;7.70;;;;;;;-143.29;100.00;62188.47;4897237;29;20029;-84
2023/04/19 06:17:37;;;;;;;19.05;6.78;;;;;;;-143.29;100.00;62188.47;4897553;29;20047;-83
2023/04/19 06:20:06;;;;;;;15.00;6.50;;;;;;;-143.29;100.00;62188.47;4896326;29;20487;-85
2023/04/19 06:22:31;;;;;;;13.68;7.10;;;;;;;-143.29;100.00;62188.47;4895098;29;20115;-85
2023/04/19 06:24:56;;;;;;;28.98;7.70;;;;;;;-143.29;100.00;62188.47;4894811;29;20144;-85
2023/04/19 06:27:22;;;;;;;13.35;6.90;;;;;;;-143.29;100.00;62188.47;4897741;29;20063;-84
2023/04/19 06:29:47;;;;;;;14.93;7.35;;;;;;;-143.29;100.00;62188.47;4910003;29;20091;-84
2023/04/19 06:32:12;;;;;;;11.20;6.60;;;;;;;-143.29;100.00;62188.47;4901675;29;20067;-80
2023/04/19 06:34:38;;;;;;;13.18;7.25;;;;;;;-143.29;100.00;62188.47;4894545;29;20033;-80
2023/04/19 06:37:03;;;;;;;12.57;7.65;;;;;;;-143.29;100.00;62188.47;4895981;29;20056;-80
2023/04/19 06:39:28;;;;;;;13.40;6.95;;;;;;;-143.29;100.00;62188.47;4907800;29;20091;-80
2023/04/19 06:41:54;;;;;;;12.73;6.78;;;;;;;-143.29;100.00;62188.47;4916254;29;20083;-81
2023/04/19 06:44:19;;;;;;;12.70;7.93;;;;;;;-143.29;100.00;62188.47;4915603;29;20032;-80
2023/04/19 06:46:45;;;;;;;12.38;7.60;;;;;;;-143.29;100.00;62188.47;4916466;29;20028;-81
2023/04/19 06:49:10;;;;;;;12.13;8.40;;;;;;;-143.29;100.00;62188.47;4896889;29;20035;-81
2023/04/19 06:51:38;;;;;;;14.93;8.68;;;;;;;-143.29;100.00;62188.47;4897045;29;20128;-81
2023/04/19 06:54:03;;;;;;;17.67;8.35;;;;;;;-143.29;100.00;62188.47;4895339;29;20065;-80
2023/04/19 06:56:46;;;;;;;14.38;8.73;;;;;;;-143.29;100.00;62188.47;4896164;29;20036;-81
2023/04/19 06:59:19;;;;;;;15.50;9.30;;;;;;;-143.29;100.00;62188.47;4894595;29;20064;-80
2023/04/19 07:01:45;;;;;;;14.13;8.45;;;;;;;-143.29;100.00;62188.47;4896224;29;20043;-80
2023/04/19 07:04:11;;;;;;;16.05;8.43;;;;;;;-143.29;100.00;62188.47;4896672;29;20100;-79
2023/04/19 07:06:37;;;;;;;13.38;9.20;;;;;;;-143.29;100.00;62188.47;4895678;29;20032;-82
2023/04/19 07:09:05;;;;;;;13.85;8.80;;;;;;;-143.29;100.00;62188.47;4896065;29;20474;-79
2023/04/19 07:11:30;;;;;;;13.02;9.25;;;;;;;-143.29;100.00;62188.47;4896819;29;20084;-79
2023/04/19 07:13:56;;;;;;;16.40;9.80;;;;;;;-143.29;100.00;62188.47;4893362;29;20032;-80
2023/04/19 07:16:22;;;;;;;17.60;10.75;;;;;;;-143.29;100.00;62188.47;4894907;29;20029;-80
2023/04/19 07:18:47;;;;;;;14.85;8.98;;;;;;;-143.29;100.00;62188.47;4889816;29;20123;-80
2023/04/19 07:21:12;;;;;;;15.43;10.23;;;;;;;-143.29;100.00;62188.47;4894393;29;20029;-81
2023/04/19 07:23:38;;;;;;;15.80;10.25;;;;;;;-143.29;100.00;62188.47;4892698;29;20076;-81
2023/04/19 07:26:03;;;;;;;14.60;9.00;;;;;;;-143.29;100.00;62188.47;4894376;29;20471;-80
2023/04/19 07:28:29;;;;;;;19.73;11.43;;;;;;;-143.29;100.00;62188.47;4894029;29;20032;-80
2023/04/19 07:30:54;;;;;;;13.68;9.48;;;;;;;-143.29;100.00;62188.47;4893810;29;20480;-81
2023/04/19 07:33:21;;;;;;;15.13;10.40;;;;;;;-143.29;100.00;62188.47;4893788;29;20025;-81
2023/04/19 07:35:46;;;;;;;15.75;10.13;;;;;;;-143.29;100.00;62188.47;4893738;29;20052;-81
2023/04/19 07:38:11;;;;;;;18.17;10.75;;;;;;;-143.29;100.00;62188.47;4894042;29;20567;-80
2023/04/19 07:40:37;;;;;;;14.90;10.27;;;;;;;-143.29;100.00;62188.47;4894301;29;20029;-80
2023/04/19 07:43:02;;;;;;;12.65;8.52;;;;;;;-143.29;100.00;62188.47;4894429;29;20033;-81
2023/04/19 07:45:29;;;;;;;14.70;10.02;;;;;;;-143.29;100.00;62188.47;4893800;29;20076;-80
2023/04/19 07:47:55;;;;;;;11.85;9.77;;;;;;;-143.29;100.00;62188.47;4893021;29;20044;-80
2023/04/19 07:50:20;;;;;;;11.05;9.20;;;;;;;-143.29;100.00;62188.47;4893460;29;20024;-80
2023/04/19 07:52:46;;;;;;;15.85;10.38;;;;;;;-143.29;100.00;62188.47;4894085;29;20029;-80
2023/04/19 07:55:11;;;;;;;13.18;10.57;;;;;;;-143.29;100.00;62188.47;4892152;29;20114;-80
2023/04/19 07:57:37;;;;;;;17.60;11.02;;;;;;;-143.29;100.00;62188.47;4893396;29;20124;-80
2023/04/19 08:00:03;;;;;;;16.65;10.82;;;;;;;-143.29;100.00;62188.47;4893521;29;20036;-80
2023/04/19 08:02:29;;;;;;;16.13;10.45;;;;;;;-143.29;100.00;62188.47;4893672;29;20060;-81
2023/04/19 08:04:56;;;;;;;17.33;11.18;;;;;;;-143.29;100.00;62188.47;4892931;29;20881;-82
2023/04/19 08:07:22;;;;;;;17.75;11.23;;;;;;;-143.29;100.00;62188.47;4893527;29;20181;-81
2023/04/19 08:09:48;;;;;;;17.60;11.02;;;;;;;-143.29;100.00;62188.47;4892321;29;20172;-81
2023/04/19 08:12:13;;;;;;;14.27;11.52;;;;;;;-143.29;100.00;62188.47;4892640;29;20685;-81
2023/04/19 08:14:39;;;;;;;20.73;11.02;;;;;;;-143.29;100.00;62188.47;4894286;29;20481;-80
2023/04/19 08:17:04;;;;;;;13.23;10.20;;;;;;;-143.29;100.00;62188.47;4892031;29;20054;-80
2023/04/19 08:19:30;;;;;;;16.65;10.27;;;;;;;-143.29;100.00;62188.47;4891815;29;20032;-81
2023/04/19 08:21:56;;;;;;;17.58;10.40;;;;;;;-143.29;100.00;62188.47;4894855;29;20114;-80
2023/04/19 08:24:21;;;;;;;15.65;11.10;;;;;;;-143.29;100.00;62188.47;4897773;29;20025;-81
2023/04/19 08:26:52;;;;;;;15.32;10.32;;;;;;;-143.29;100.00;62188.47;4897026;29;20061;-81
2023/04/19 08:29:18;;;;;;;14.87;10.90;;;;;;;-143.29;100.00;62188.47;4896996;29;20025;-80
2023/04/19 08:31:45;;;;;;;16.38;12.15;;;;;;;-143.29;100.00;62188.47;4897765;29;20041;-80
2023/04/19 08:34:10;;;;;;;15.10;10.32;;;;;;;-143.29;100.00;62188.47;4897031;29;20112;-80
2023/04/19 08:36:36;;;;;;;16.10;11.07;;;;;;;-143.29;100.00;62188.47;4894258;29;20119;-78
2023/04/19 08:39:01;;;;;;;18.10;11.27;;;;;;;-143.29;100.00;62188.47;4894030;29;20077;-80
2023/04/19 08:41:29;;;;;;;15.23;9.82;;;;;;;-143.29;100.00;62188.47;4897393;29;20052;-82
2023/04/19 08:43:55;;;;;;;15.23;10.55;;;;;;;-143.29;100.00;62188.47;4897766;29;20048;-81
2023/04/19 08:46:23;;;;;;;18.67;11.38;;;;;;;-143.29;100.00;62188.47;4897414;29;20033;-81
2023/04/19 08:48:49;;;;;;;18.40;10.98;;;;;;;-143.29;100.00;62188.47;4897225;29;20033;-80
2023/04/19 08:51:16;;;;;;;13.70;10.30;;;;;;;-143.29;100.00;62188.47;4897469;29;20037;-81
2023/04/19 08:53:43;;;;;;;13.98;10.65;;;;;;;-143.29;100.00;62188.47;4897518;29;20483;-82
2023/04/19 08:56:09;;;;;;;14.43;10.60;;;;;;;-143.29;100.00;62188.47;4893231;29;20036;-81
2023/04/19 08:58:35;;;;;;;15.48;10.38;;;;;;;-143.29;100.00;62188.47;4895867;29;20036;-81
2023/04/19 09:01:03;;;;;;;19.45;10.05;;;;;;;-143.29;100.00;62188.47;4895529;29;20032;-80
2023/04/19 09:03:29;;;;;;;13.60;9.80;;;;;;;-143.29;100.00;62188.47;4897465;29;20043;-80
2023/04/19 09:05:55;;;;;;;15.52;10.40;;;;;;;-143.29;100.00;62188.47;4897306;29;20028;-80
2023/04/19 09:08:29;;;;;;;13.63;9.77;;;;;;;-143.29;100.00;62188.47;4894620;29;20032;-80
2023/04/19 09:10:57;;;;;;;14.45;9.60;;;;;;;-143.29;100.00;62188.47;4893343;29;20461;-82
2023/04/19 09:13:23;;;;;;;15.95;10.90;;;;;;;-143.29;100.00;62188.47;4896417;29;20028;-83
2023/04/19 09:15:48;;;;;;;14.23;9.02;;;;;;;-143.29;100.00;62188.47;4896752;29;20036;-87
2023/04/19 09:18:14;;;;;;;15.50;9.70;;;;;;;-143.29;100.00;62188.47;4894621;29;20514;-84
2023/04/19 09:20:43;;;;;;;14.90;9.75;;;;;;;-143.29;100.00;62188.47;4897186;29;20032;-83
2023/04/19 09:23:11;;;;;;;16.83;10.18;;;;;;;-143.29;100.00;62188.47;4897925;29;20036;-83
2023/04/19 09:25:38;;;;;;;21.77;9.90;;;;;;;-143.29;100.00;62188.47;4896853;29;20596;-82
2023/04/19 09:28:11;;;;;;;13.88;9.52;;;;;;;-143.29;100.00;62188.47;4894473;29;20080;-86
2023/04/19 09:30:38;;;;;;;14.88;10.30;;;;;;;-143.29;100.00;62188.47;4897216;29;20029;-84
2023/04/19 09:33:04;;;;;;;17.73;10.68;;;;;;;-143.29;100.00;62188.47;4897902;29;20033;-82
2023/04/19 09:35:43;;;;;;;17.45;9.25;;;;;;;-143.29;100.00;62188.47;4896152;29;20444;-81
2023/04/19 09:38:09;;;;;;;15.80;9.32;;;;;;;-143.29;100.00;62188.47;4896920;29;20537;-82
2023/04/19 09:40:35;;;;;;;16.42;9.48;;;;;;;-143.29;100.00;62188.47;4896905;29;20033;-82
2023/04/19 09:43:02;;;;;;;17.80;9.57;;;;;;;-143.29;100.00;62188.47;4896135;29;20047;-80
2023/04/19 09:45:45;;;;;;;18.98;8.20;;;;;;;-143.29;100.00;62188.47;4897262;29;20034;-84
2023/04/19 09:48:11;;;;;;;15.82;9.35;;;;;;;-143.29;100.00;62188.47;4897267;29;20489;-86
2023/04/19 09:50:52;;;;;;;16.75;8.77;;;;;;;-143.29;100.00;62188.47;4894861;29;20076;-85
2023/04/19 09:53:18;;;;;;;23.58;8.68;;;;;;;-143.29;100.00;62188.47;4897282;29;20396;-84
2023/04/19 09:55:48;;;;;;;15.80;8.88;;;;;;;-143.29;100.00;62188.47;4897186;29;20514;-87
2023/04/19 09:58:18;;;;;;;16.48;8.70;;;;;;;-143.29;100.00;62188.47;4893476;29;20047;-85
2023/04/19 10:00:46;;;;;;;13.18;8.85;;;;;;;-143.29;100.00;62188.47;4894457;29;20107;-84
2023/04/19 10:03:12;;;;;;;16.63;8.77;;;;;;;-143.29;100.00;62188.47;4894875;29;20039;-87
2023/04/19 10:05:43;;;;;;;14.32;8.50;;;;;;;-143.29;100.00;62188.47;4897067;29;20440;-84
2023/04/19 10:08:13;;;;;;;11.38;7.93;;;;;;;-143.29;100.00;62188.47;4896917;29;20029;-85
2023/04/19 10:10:40;;;;;;;13.80;9.25;;;;;;;-143.29;100.00;62188.47;4898672;29;20028;-86
2023/04/19 10:13:10;;;;;;;11.88;7.95;;;;;;;-143.29;100.00;62188.47;4895755;29;20280;-88
2023/04/19 10:15:36;;;;;;;15.10;7.88;;;;;;;-143.29;100.00;62188.47;4897141;29;20036;-89
2023/04/19 10:18:03;;;;;;;15.00;8.27;;;;;;;-143.29;100.00;62188.47;4892649;29;20040;-88
2023/04/19 10:20:38;;;;;;;13.40;6.85;;;;;;;-143.29;100.00;62188.47;4894479;29;20032;-91
2023/04/19 10:23:08;;;;;;;11.38;6.75;;;;;;;-143.29;100.00;62188.47;4896611;29;20040;-89
2023/04/19 10:25:36;;;;;;;10.15;6.53;;;;;;;-143.29;100.00;62188.47;4882097;29;20039;-91
2023/04/19 10:28:01;;;;;;;20.42;7.50;;;;;;;-143.29;100.00;62188.47;4890691;29;20116;-89
2023/04/19 10:30:27;;;;;;;10.73;7.13;;;;;;;-143.29;100.00;62188.47;4890560;29;20115;-91
2023/04/19 10:32:55;;;;;;;16.17;7.45;;;;;;;-143.29;100.00;62188.47;4896492;29;20048;-91
2023/04/19 10:35:22;;;;;;;11.02;6.90;;;;;;;-143.29;100.00;62188.47;4896220;29;20503;-90
2023/04/19 10:38:34;;;;;;;12.38;6.43;;;;;;;-143.29;100.00;62188.47;4896324;29;20040;-90
2023/04/19 10:41:00;;;;;;;15.40;8.50;;;;;;;-143.29;100.00;62188.47;4886616;29;20052;-90
2023/04/19 10:43:29;;;;;;;9.52;6.60;;;;;;;-143.29;100.00;62188.47;4895290;29;20043;-89
2023/04/19 10:46:00;;;;;;;11.60;6.60;;;;;;;-143.29;100.00;62188.47;4896205;29;20039;-86
2023/04/19 10:48:26;;;;;;;10.38;6.90;;;;;;;-143.29;100.00;62188.47;4896412;29;20546;-85
2023/04/19 10:51:15;;;;;;;11.73;6.70;;;;;;;-143.29;100.00;62188.47;4896051;29;20147;-88
2023/04/19 10:53:47;;;;;;;11.57;6.93;;;;;;;-143.29;100.00;62188.47;4894196;29;20040;-89
2023/04/19 10:56:14;;;;;;;9.55;6.65;;;;;;;-143.29;100.00;62188.47;4896444;29;20024;-89
2023/04/19 11:01:43;;;;;;;9.85;6.70;;;;;;;-143.29;100.00;62188.47;4894882;29;20041;-89